sensor_id;sensor_type;location;lat;lon;timestamp;temperature;humidity
48666;DHT22;34452;50.796;4.994;2022-10-16T00:01:25;13.70;99.90
48666;DHT22;34452;50.796;4.994;2022-10-16T00:03:51;13.60;99.90
48666;DHT22;34452;50.796;4.994;2022-10-16T00:06:19;13.60;99.90
48666;DHT22;34452;50.796;4.994;2022-10-16T00:08:45;13.60;99.90
48666;DHT22;34452;50.796;4.994;2022-10-16T00:11:22;13.60;99.90
48666;DHT22;34452;50.796;4.994;2022-10-16T00:13:50;13.60;99.90
48666;DHT22;34452;50.796;4.994;2022-10-16T00:16:16;13.60;99.90
48666;DHT22;34452;50.796;4.994;2022-10-16T00:18:42;13.60;99.90
48666;DHT22;34452;50.796;4.994;2022-10-16T00:21:11;13.60;99.90
48666;DHT22;34452;50.796;4.994;2022-10-16T00:23:37;13.60;99.90
48666;DHT22;34452;50.796;4.994;2022-10-16T00:26:12;13.60;99.90
48666;DHT22;34452;50.796;4.994;2022-10-16T00:28:38;13.60;99.90
48666;DHT22;34452;50.796;4.994;2022-10-16T00:31:08;13.60;99.90
48666;DHT22;34452;50.796;4.994;2022-10-16T00:33:35;13.60;99.90
48666;DHT22;34452;50.796;4.994;2022-10-16T00:36:02;13.60;99.90
48666;DHT22;34452;50.796;4.994;2022-10-16T00:38:28;13.60;99.90
48666;DHT22;34452;50.796;4.994;2022-10-16T00:40:54;13.60;99.90
48666;DHT22;34452;50.796;4.994;2022-10-16T00:43:34;13.60;99.90
48666;DHT22;34452;50.796;4.994;2022-10-16T00:46:01;13.60;99.90
48666;DHT22;34452;50.796;4.994;2022-10-16T00:48:28;13.70;99.90
48666;DHT22;34452;50.796;4.994;2022-10-16T00:50:54;13.70;99.90
48666;DHT22;34452;50.796;4.994;2022-10-16T00:53:20;13.70;99.90
48666;DHT22;34452;50.796;4.994;2022-10-16T00:55:47;13.70;99.90
48666;DHT22;34452;50.796;4.994;2022-10-16T00:58:12;13.70;99.90
48666;DHT22;34452;50.796;4.994;2022-10-16T01:00:38;13.70;99.90
48666;DHT22;34452;50.796;4.994;2022-10-16T01:03:27;13.70;99.90
48666;DHT22;34452;50.796;4.994;2022-10-16T01:09:13;13.70;99.90
48666;DHT22;34452;50.796;4.994;2022-10-16T01:14:17;13.70;99.90
48666;DHT22;34452;50.796;4.994;2022-10-16T01:16:55;13.60;99.90
48666;DHT22;34452;50.796;4.994;2022-10-16T01:22:11;13.60;99.90
48666;DHT22;34452;50.796;4.994;2022-10-16T01:24:40;13.60;99.90
48666;DHT22;34452;50.796;4.994;2022-10-16T01:27:25;13.60;99.90
48666;DHT22;34452;50.796;4.994;2022-10-16T01:30:20;13.60;99.90
48666;DHT22;34452;50.796;4.994;2022-10-16T01:32:55;13.60;99.90
48666;DHT22;34452;50.796;4.994;2022-10-16T01:35:26;13.60;99.90
48666;DHT22;34452;50.796;4.994;2022-10-16T01:38:16;13.50;99.90
48666;DHT22;34452;50.796;4.994;2022-10-16T01:40:50;13.60;99.90
48666;DHT22;34452;50.796;4.994;2022-10-16T01:43:21;13.60;99.90
48666;DHT22;34452;50.796;4.994;2022-10-16T01:45:48;13.60;99.90
48666;DHT22;34452;50.796;4.994;2022-10-16T01:48:18;13.60;99.90
48666;DHT22;34452;50.796;4.994;2022-10-16T01:50:55;13.50;99.90
48666;DHT22;34452;50.796;4.994;2022-10-16T01:53:23;13.50;99.90
48666;DHT22;34452;50.796;4.994;2022-10-16T01:55:49;13.50;99.90
48666;DHT22;34452;50.796;4.994;2022-10-16T01:58:17;13.50;99.90
48666;DHT22;34452;50.796;4.994;2022-10-16T02:00:45;13.50;99.90
48666;DHT22;34452;50.796;4.994;2022-10-16T02:03:13;13.50;99.90
48666;DHT22;34452;50.796;4.994;2022-10-16T02:05:55;13.50;99.90
48666;DHT22;34452;50.796;4.994;2022-10-16T02:08:24;13.50;99.90
48666;DHT22;34452;50.796;4.994;2022-10-16T02:10:51;13.40;99.90
48666;DHT22;34452;50.796;4.994;2022-10-16T02:15:50;13.40;99.90
48666;DHT22;34452;50.796;4.994;2022-10-16T02:18:16;13.40;99.90
48666;DHT22;34452;50.796;4.994;2022-10-16T02:21:15;13.40;99.90
48666;DHT22;34452;50.796;4.994;2022-10-16T02:26:28;13.40;99.90
48666;DHT22;34452;50.796;4.994;2022-10-16T02:29:01;13.40;99.90
48666;DHT22;34452;50.796;4.994;2022-10-16T02:31:32;13.30;99.90
48666;DHT22;34452;50.796;4.994;2022-10-16T02:34:00;13.30;99.90
48666;DHT22;34452;50.796;4.994;2022-10-16T02:36:27;13.30;99.90
48666;DHT22;34452;50.796;4.994;2022-10-16T02:38:53;13.40;99.90
48666;DHT22;34452;50.796;4.994;2022-10-16T02:41:21;13.30;99.90
48666;DHT22;34452;50.796;4.994;2022-10-16T02:43:47;13.30;99.90
48666;DHT22;34452;50.796;4.994;2022-10-16T02:46:13;13.30;99.90
48666;DHT22;34452;50.796;4.994;2022-10-16T02:48:38;13.30;99.90
48666;DHT22;34452;50.796;4.994;2022-10-16T02:51:04;13.30;99.90
48666;DHT22;34452;50.796;4.994;2022-10-16T02:53:31;13.30;99.90
48666;DHT22;34452;50.796;4.994;2022-10-16T02:55:56;13.30;99.90
48666;DHT22;34452;50.796;4.994;2022-10-16T02:58:22;13.30;99.90
48666;DHT22;34452;50.796;4.994;2022-10-16T03:00:48;13.20;99.90
48666;DHT22;34452;50.796;4.994;2022-10-16T03:03:14;13.30;99.90
48666;DHT22;34452;50.796;4.994;2022-10-16T03:05:39;13.30;99.90
48666;DHT22;34452;50.796;4.994;2022-10-16T03:08:05;13.20;99.90
48666;DHT22;34452;50.796;4.994;2022-10-16T03:10:31;13.20;99.90
48666;DHT22;34452;50.796;4.994;2022-10-16T03:12:56;13.20;99.90
48666;DHT22;34452;50.796;4.994;2022-10-16T03:15:22;13.20;99.90
48666;DHT22;34452;50.796;4.994;2022-10-16T03:17:48;13.10;99.90
48666;DHT22;34452;50.796;4.994;2022-10-16T03:20:13;13.10;99.90
48666;DHT22;34452;50.796;4.994;2022-10-16T03:22:39;13.10;99.90
48666;DHT22;34452;50.796;4.994;2022-10-16T03:25:05;13.10;99.90
48666;DHT22;34452;50.796;4.994;2022-10-16T03:27:31;13.10;99.90
48666;DHT22;34452;50.796;4.994;2022-10-16T03:29:57;13.10;99.90
48666;DHT22;34452;50.796;4.994;2022-10-16T03:32:22;13.10;99.90
48666;DHT22;34452;50.796;4.994;2022-10-16T03:34:50;13.10;99.90
48666;DHT22;34452;50.796;4.994;2022-10-16T03:37:15;13.10;99.90
48666;DHT22;34452;50.796;4.994;2022-10-16T03:39:41;13.00;99.90
48666;DHT22;34452;50.796;4.994;2022-10-16T03:42:07;13.00;99.90
48666;DHT22;34452;50.796;4.994;2022-10-16T03:44:32;13.00;99.90
48666;DHT22;34452;50.796;4.994;2022-10-16T03:46:58;13.00;99.90
48666;DHT22;34452;50.796;4.994;2022-10-16T03:49:24;13.00;99.90
48666;DHT22;34452;50.796;4.994;2022-10-16T03:51:49;13.00;99.90
48666;DHT22;34452;50.796;4.994;2022-10-16T03:54:15;13.00;99.90
48666;DHT22;34452;50.796;4.994;2022-10-16T03:56:41;12.90;99.90
48666;DHT22;34452;50.796;4.994;2022-10-16T03:59:06;12.90;99.90
48666;DHT22;34452;50.796;4.994;2022-10-16T04:01:32;12.80;99.90
48666;DHT22;34452;50.796;4.994;2022-10-16T04:03:58;12.80;99.90
48666;DHT22;34452;50.796;4.994;2022-10-16T04:06:23;12.90;99.90
48666;DHT22;34452;50.796;4.994;2022-10-16T04:08:49;12.80;99.90
48666;DHT22;34452;50.796;4.994;2022-10-16T04:11:15;12.80;99.90
48666;DHT22;34452;50.796;4.994;2022-10-16T04:13:40;12.90;99.90
48666;DHT22;34452;50.796;4.994;2022-10-16T04:16:07;12.90;99.90
48666;DHT22;34452;50.796;4.994;2022-10-16T04:18:32;12.90;99.90
48666;DHT22;34452;50.796;4.994;2022-10-16T04:21:05;12.90;99.90
48666;DHT22;34452;50.796;4.994;2022-10-16T04:23:32;12.90;99.90
48666;DHT22;34452;50.796;4.994;2022-10-16T04:25:57;13.00;99.90
48666;DHT22;34452;50.796;4.994;2022-10-16T04:28:23;13.00;99.90
48666;DHT22;34452;50.796;4.994;2022-10-16T04:30:49;13.00;99.90
48666;DHT22;34452;50.796;4.994;2022-10-16T04:33:14;13.00;99.90
48666;DHT22;34452;50.796;4.994;2022-10-16T04:35:40;13.00;99.90
48666;DHT22;34452;50.796;4.994;2022-10-16T04:38:06;13.00;99.90
48666;DHT22;34452;50.796;4.994;2022-10-16T04:40:31;13.10;99.90
48666;DHT22;34452;50.796;4.994;2022-10-16T04:43:03;13.00;99.90
48666;DHT22;34452;50.796;4.994;2022-10-16T04:45:29;13.00;99.90
48666;DHT22;34452;50.796;4.994;2022-10-16T04:47:58;13.00;99.90
48666;DHT22;34452;50.796;4.994;2022-10-16T04:50:24;13.10;99.90
48666;DHT22;34452;50.796;4.994;2022-10-16T04:52:50;13.10;99.90
48666;DHT22;34452;50.796;4.994;2022-10-16T04:55:16;13.10;99.90
48666;DHT22;34452;50.796;4.994;2022-10-16T04:57:41;13.10;99.90
48666;DHT22;34452;50.796;4.994;2022-10-16T05:00:08;13.10;99.90
48666;DHT22;34452;50.796;4.994;2022-10-16T05:02:34;13.10;99.90
48666;DHT22;34452;50.796;4.994;2022-10-16T05:04:59;13.10;99.90
48666;DHT22;34452;50.796;4.994;2022-10-16T05:07:25;13.00;99.90
48666;DHT22;34452;50.796;4.994;2022-10-16T05:09:51;13.00;99.90
48666;DHT22;34452;50.796;4.994;2022-10-16T05:12:17;13.00;99.90
48666;DHT22;34452;50.796;4.994;2022-10-16T05:14:43;13.00;99.90
48666;DHT22;34452;50.796;4.994;2022-10-16T05:17:09;13.00;99.90
48666;DHT22;34452;50.796;4.994;2022-10-16T05:19:34;13.00;99.90
48666;DHT22;34452;50.796;4.994;2022-10-16T05:22:00;13.00;99.90
48666;DHT22;34452;50.796;4.994;2022-10-16T05:24:26;13.00;99.90
48666;DHT22;34452;50.796;4.994;2022-10-16T05:26:52;13.00;99.90
48666;DHT22;34452;50.796;4.994;2022-10-16T05:29:18;13.00;99.90
48666;DHT22;34452;50.796;4.994;2022-10-16T05:31:44;13.00;99.90
48666;DHT22;34452;50.796;4.994;2022-10-16T05:34:09;13.10;99.90
48666;DHT22;34452;50.796;4.994;2022-10-16T05:36:35;13.10;99.90
48666;DHT22;34452;50.796;4.994;2022-10-16T05:39:01;13.00;99.90
48666;DHT22;34452;50.796;4.994;2022-10-16T05:41:27;13.10;99.90
48666;DHT22;34452;50.796;4.994;2022-10-16T05:43:53;13.10;99.90
48666;DHT22;34452;50.796;4.994;2022-10-16T05:46:19;13.10;99.90
48666;DHT22;34452;50.796;4.994;2022-10-16T05:48:45;13.10;99.90
48666;DHT22;34452;50.796;4.994;2022-10-16T05:51:13;13.10;99.90
48666;DHT22;34452;50.796;4.994;2022-10-16T05:53:40;13.10;99.90
48666;DHT22;34452;50.796;4.994;2022-10-16T05:56:09;13.10;99.90
48666;DHT22;34452;50.796;4.994;2022-10-16T05:58:36;13.10;99.90
48666;DHT22;34452;50.796;4.994;2022-10-16T06:01:05;13.20;99.90
48666;DHT22;34452;50.796;4.994;2022-10-16T06:03:32;13.10;99.90
48666;DHT22;34452;50.796;4.994;2022-10-16T06:05:58;13.10;99.90
48666;DHT22;34452;50.796;4.994;2022-10-16T06:08:23;13.10;99.90
48666;DHT22;34452;50.796;4.994;2022-10-16T06:11:03;13.10;99.90
48666;DHT22;34452;50.796;4.994;2022-10-16T06:13:29;13.20;99.90
48666;DHT22;34452;50.796;4.994;2022-10-16T06:15:57;13.10;99.90
48666;DHT22;34452;50.796;4.994;2022-10-16T06:18:24;13.10;99.90
48666;DHT22;34452;50.796;4.994;2022-10-16T06:20:49;13.10;99.90
48666;DHT22;34452;50.796;4.994;2022-10-16T06:23:15;13.10;99.90
48666;DHT22;34452;50.796;4.994;2022-10-16T06:25:41;13.10;99.90
48666;DHT22;34452;50.796;4.994;2022-10-16T06:28:06;13.10;99.90
48666;DHT22;34452;50.796;4.994;2022-10-16T06:30:32;13.10;99.90
48666;DHT22;34452;50.796;4.994;2022-10-16T06:32:58;13.10;99.90
48666;DHT22;34452;50.796;4.994;2022-10-16T06:35:23;13.10;99.90
48666;DHT22;34452;50.796;4.994;2022-10-16T06:37:49;13.10;99.90
48666;DHT22;34452;50.796;4.994;2022-10-16T06:40:15;13.10;99.90
48666;DHT22;34452;50.796;4.994;2022-10-16T06:42:41;13.10;99.90
48666;DHT22;34452;50.796;4.994;2022-10-16T06:45:07;13.00;99.90
48666;DHT22;34452;50.796;4.994;2022-10-16T06:47:33;13.00;99.90
48666;DHT22;34452;50.796;4.994;2022-10-16T06:49:58;13.00;99.90
48666;DHT22;34452;50.796;4.994;2022-10-16T06:52:24;13.00;99.90
48666;DHT22;34452;50.796;4.994;2022-10-16T06:54:50;13.00;99.90
48666;DHT22;34452;50.796;4.994;2022-10-16T06:57:16;13.00;99.90
48666;DHT22;34452;50.796;4.994;2022-10-16T06:59:41;13.00;99.90
48666;DHT22;34452;50.796;4.994;2022-10-16T07:02:08;13.10;99.90
48666;DHT22;34452;50.796;4.994;2022-10-16T07:04:36;13.10;99.90
48666;DHT22;34452;50.796;4.994;2022-10-16T07:07:01;13.10;99.90
48666;DHT22;34452;50.796;4.994;2022-10-16T07:09:27;13.20;99.90
48666;DHT22;34452;50.796;4.994;2022-10-16T07:11:53;13.20;99.90
48666;DHT22;34452;50.796;4.994;2022-10-16T07:14:20;13.30;99.90
48666;DHT22;34452;50.796;4.994;2022-10-16T07:16:46;13.30;99.90
48666;DHT22;34452;50.796;4.994;2022-10-16T07:19:12;13.40;99.90
48666;DHT22;34452;50.796;4.994;2022-10-16T07:21:41;13.40;99.90
48666;DHT22;34452;50.796;4.994;2022-10-16T07:24:11;13.50;99.90
48666;DHT22;34452;50.796;4.994;2022-10-16T07:26:38;13.50;99.90
48666;DHT22;34452;50.796;4.994;2022-10-16T07:29:06;13.60;99.90
48666;DHT22;34452;50.796;4.994;2022-10-16T07:31:32;13.70;99.90
48666;DHT22;34452;50.796;4.994;2022-10-16T07:33:59;13.80;99.90
48666;DHT22;34452;50.796;4.994;2022-10-16T07:36:25;13.80;99.90
48666;DHT22;34452;50.796;4.994;2022-10-16T07:38:50;13.90;99.90
48666;DHT22;34452;50.796;4.994;2022-10-16T07:41:18;14.00;99.90
48666;DHT22;34452;50.796;4.994;2022-10-16T07:43:48;14.00;99.90
48666;DHT22;34452;50.796;4.994;2022-10-16T07:46:15;14.10;99.90
48666;DHT22;34452;50.796;4.994;2022-10-16T07:48:42;14.10;99.90
48666;DHT22;34452;50.796;4.994;2022-10-16T07:51:11;14.20;99.90
48666;DHT22;34452;50.796;4.994;2022-10-16T07:53:37;14.20;99.90
48666;DHT22;34452;50.796;4.994;2022-10-16T07:56:05;14.30;99.90
48666;DHT22;34452;50.796;4.994;2022-10-16T07:58:31;14.30;99.90
48666;DHT22;34452;50.796;4.994;2022-10-16T08:00:58;14.40;99.90
48666;DHT22;34452;50.796;4.994;2022-10-16T08:03:25;14.40;99.90
48666;DHT22;34452;50.796;4.994;2022-10-16T08:05:51;14.50;99.90
48666;DHT22;34452;50.796;4.994;2022-10-16T08:08:18;14.60;99.90
48666;DHT22;34452;50.796;4.994;2022-10-16T08:10:44;14.70;99.90
48666;DHT22;34452;50.796;4.994;2022-10-16T08:13:10;14.70;99.90
48666;DHT22;34452;50.796;4.994;2022-10-16T08:15:36;14.80;99.90
48666;DHT22;34452;50.796;4.994;2022-10-16T08:18:03;14.80;99.90
48666;DHT22;34452;50.796;4.994;2022-10-16T08:20:31;14.80;99.90
48666;DHT22;34452;50.796;4.994;2022-10-16T08:22:59;14.90;99.90
48666;DHT22;34452;50.796;4.994;2022-10-16T08:25:25;14.90;99.90
48666;DHT22;34452;50.796;4.994;2022-10-16T08:27:51;15.00;99.90
48666;DHT22;34452;50.796;4.994;2022-10-16T08:30:18;15.00;99.90
48666;DHT22;34452;50.796;4.994;2022-10-16T08:32:45;15.10;99.90
48666;DHT22;34452;50.796;4.994;2022-10-16T08:35:11;15.10;99.90
48666;DHT22;34452;50.796;4.994;2022-10-16T08:37:38;15.20;99.90
48666;DHT22;34452;50.796;4.994;2022-10-16T08:40:04;15.20;99.90
48666;DHT22;34452;50.796;4.994;2022-10-16T08:50:42;15.40;99.90
48666;DHT22;34452;50.796;4.994;2022-10-16T08:53:23;15.50;99.90
48666;DHT22;34452;50.796;4.994;2022-10-16T08:55:52;15.50;99.90
48666;DHT22;34452;50.796;4.994;2022-10-16T08:58:20;15.60;99.90
48666;DHT22;34452;50.796;4.994;2022-10-16T09:01:01;15.70;99.90
48666;DHT22;34452;50.796;4.994;2022-10-16T09:07:09;15.80;99.90
48666;DHT22;34452;50.796;4.994;2022-10-16T09:10:00;15.90;99.90
48666;DHT22;34452;50.796;4.994;2022-10-16T09:12:40;15.90;99.90
48666;DHT22;34452;50.796;4.994;2022-10-16T09:15:23;16.00;99.90
48666;DHT22;34452;50.796;4.994;2022-10-16T09:21:05;16.20;99.90
48666;DHT22;34452;50.796;4.994;2022-10-16T09:23:37;16.20;99.90
48666;DHT22;34452;50.796;4.994;2022-10-16T09:26:05;16.30;99.90
48666;DHT22;34452;50.796;4.994;2022-10-16T09:28:34;16.30;99.90
48666;DHT22;34452;50.796;4.994;2022-10-16T09:31:00;16.40;99.90
48666;DHT22;34452;50.796;4.994;2022-10-16T09:33:38;16.50;99.90
48666;DHT22;34452;50.796;4.994;2022-10-16T09:36:05;16.50;99.90
48666;DHT22;34452;50.796;4.994;2022-10-16T09:38:34;16.60;99.90
48666;DHT22;34452;50.796;4.994;2022-10-16T09:41:03;16.60;99.90
48666;DHT22;34452;50.796;4.994;2022-10-16T09:43:53;16.70;99.90
48666;DHT22;34452;50.796;4.994;2022-10-16T09:48:57;16.90;99.90
48666;DHT22;34452;50.796;4.994;2022-10-16T09:51:33;16.90;99.90
48666;DHT22;34452;50.796;4.994;2022-10-16T09:54:26;17.00;99.90
48666;DHT22;34452;50.796;4.994;2022-10-16T09:56:52;17.10;99.90
48666;DHT22;34452;50.796;4.994;2022-10-16T09:59:21;17.10;99.90
48666;DHT22;34452;50.796;4.994;2022-10-16T10:01:53;17.10;99.90
48666;DHT22;34452;50.796;4.994;2022-10-16T10:04:22;17.20;99.90
48666;DHT22;34452;50.796;4.994;2022-10-16T10:06:52;17.30;99.90
48666;DHT22;34452;50.796;4.994;2022-10-16T10:09:25;17.40;99.90
48666;DHT22;34452;50.796;4.994;2022-10-16T10:12:02;17.40;99.90
48666;DHT22;34452;50.796;4.994;2022-10-16T10:14:37;17.50;99.90
48666;DHT22;34452;50.796;4.994;2022-10-16T10:19:39;17.60;99.90
48666;DHT22;34452;50.796;4.994;2022-10-16T10:22:43;17.60;99.90
48666;DHT22;34452;50.796;4.994;2022-10-16T10:33:35;17.20;99.90
48666;DHT22;34452;50.796;4.994;2022-10-16T10:47:33;17.40;99.90
48666;DHT22;34452;50.796;4.994;2022-10-16T10:50:26;17.50;99.90
48666;DHT22;34452;50.796;4.994;2022-10-16T10:58:43;17.70;99.90
48666;DHT22;34452;50.796;4.994;2022-10-16T11:07:39;17.80;99.90
48666;DHT22;34452;50.796;4.994;2022-10-16T11:10:21;17.80;99.90
48666;DHT22;34452;50.796;4.994;2022-10-16T11:12:52;17.80;99.90
48666;DHT22;34452;50.796;4.994;2022-10-16T11:15:33;17.70;99.90
48666;DHT22;34452;50.796;4.994;2022-10-16T11:18:06;17.60;99.90
48666;DHT22;34452;50.796;4.994;2022-10-16T11:20:52;17.50;99.90
48666;DHT22;34452;50.796;4.994;2022-10-16T11:25:51;17.70;99.90
48666;DHT22;34452;50.796;4.994;2022-10-16T11:28:31;17.70;99.90
48666;DHT22;34452;50.796;4.994;2022-10-16T11:31:13;17.80;99.90
48666;DHT22;34452;50.796;4.994;2022-10-16T11:33:49;17.80;99.90
48666;DHT22;34452;50.796;4.994;2022-10-16T11:47:27;18.00;99.90
48666;DHT22;34452;50.796;4.994;2022-10-16T11:49:59;18.00;99.90
48666;DHT22;34452;50.796;4.994;2022-10-16T11:52:36;18.00;99.90
48666;DHT22;34452;50.796;4.994;2022-10-16T12:03:34;18.60;99.90
48666;DHT22;34452;50.796;4.994;2022-10-16T12:08:30;18.80;99.90
48666;DHT22;34452;50.796;4.994;2022-10-16T12:11:20;18.70;99.90
48666;DHT22;34452;50.796;4.994;2022-10-16T12:13:47;18.80;99.90
48666;DHT22;34452;50.796;4.994;2022-10-16T12:18:43;18.90;99.90
48666;DHT22;34452;50.796;4.994;2022-10-16T12:21:11;19.00;99.90
48666;DHT22;34452;50.796;4.994;2022-10-16T12:23:50;19.20;99.90
48666;DHT22;34452;50.796;4.994;2022-10-16T12:26:33;19.20;99.90
48666;DHT22;34452;50.796;4.994;2022-10-16T12:31:54;19.30;99.90
48666;DHT22;34452;50.796;4.994;2022-10-16T12:34:38;19.30;99.90
48666;DHT22;34452;50.796;4.994;2022-10-16T12:37:34;19.10;99.90
48666;DHT22;34452;50.796;4.994;2022-10-16T12:40:34;19.00;99.90
48666;DHT22;34452;50.796;4.994;2022-10-16T12:42:58;19.00;99.90
48666;DHT22;34452;50.796;4.994;2022-10-16T12:45:31;18.90;99.90
48666;DHT22;34452;50.796;4.994;2022-10-16T12:47:59;18.80;99.90
48666;DHT22;34452;50.796;4.994;2022-10-16T12:50:37;18.70;99.90
48666;DHT22;34452;50.796;4.994;2022-10-16T12:53:16;18.60;99.90
48666;DHT22;34452;50.796;4.994;2022-10-16T12:55:58;18.60;99.90
48666;DHT22;34452;50.796;4.994;2022-10-16T13:07:03;18.60;99.90
48666;DHT22;34452;50.796;4.994;2022-10-16T13:10:00;18.50;99.90
48666;DHT22;34452;50.796;4.994;2022-10-16T13:15:50;18.40;99.90
48666;DHT22;34452;50.796;4.994;2022-10-16T13:21:33;18.40;99.90
48666;DHT22;34452;50.796;4.994;2022-10-16T13:29:14;18.30;99.90
48666;DHT22;34452;50.796;4.994;2022-10-16T13:31:40;18.30;99.90
48666;DHT22;34452;50.796;4.994;2022-10-16T13:34:15;18.30;99.90
48666;DHT22;34452;50.796;4.994;2022-10-16T13:36:48;18.20;99.90
48666;DHT22;34452;50.796;4.994;2022-10-16T13:42:01;18.10;99.90
48666;DHT22;34452;50.796;4.994;2022-10-16T13:44:35;18.10;99.90
48666;DHT22;34452;50.796;4.994;2022-10-16T13:47:02;18.10;99.90
48666;DHT22;34452;50.796;4.994;2022-10-16T13:49:28;18.10;99.90
48666;DHT22;34452;50.796;4.994;2022-10-16T13:51:55;18.20;99.90
48666;DHT22;34452;50.796;4.994;2022-10-16T13:54:22;18.20;99.90
48666;DHT22;34452;50.796;4.994;2022-10-16T13:56:48;18.30;99.90
48666;DHT22;34452;50.796;4.994;2022-10-16T13:59:33;18.40;99.90
48666;DHT22;34452;50.796;4.994;2022-10-16T14:02:00;18.50;99.90
48666;DHT22;34452;50.796;4.994;2022-10-16T14:04:32;18.40;99.90
48666;DHT22;34452;50.796;4.994;2022-10-16T14:06:58;18.40;99.90
48666;DHT22;34452;50.796;4.994;2022-10-16T14:09:28;18.40;99.90
48666;DHT22;34452;50.796;4.994;2022-10-16T14:12:03;18.30;99.90
48666;DHT22;34452;50.796;4.994;2022-10-16T14:14:42;18.30;99.90
48666;DHT22;34452;50.796;4.994;2022-10-16T14:17:35;18.30;99.90
48666;DHT22;34452;50.796;4.994;2022-10-16T14:20:05;18.30;99.90
48666;DHT22;34452;50.796;4.994;2022-10-16T14:22:37;18.30;99.90
48666;DHT22;34452;50.796;4.994;2022-10-16T14:27:45;18.20;99.90
48666;DHT22;34452;50.796;4.994;2022-10-16T14:30:20;18.20;99.90
48666;DHT22;34452;50.796;4.994;2022-10-16T14:37:58;18.30;99.90
48666;DHT22;34452;50.796;4.994;2022-10-16T14:40:29;18.20;99.90
48666;DHT22;34452;50.796;4.994;2022-10-16T14:42:56;18.20;99.90
48666;DHT22;34452;50.796;4.994;2022-10-16T14:45:24;18.20;99.90
48666;DHT22;34452;50.796;4.994;2022-10-16T14:48:06;18.20;99.90
48666;DHT22;34452;50.796;4.994;2022-10-16T14:50:40;18.30;99.90
48666;DHT22;34452;50.796;4.994;2022-10-16T14:53:11;18.30;99.90
48666;DHT22;34452;50.796;4.994;2022-10-16T14:55:38;18.30;99.90
48666;DHT22;34452;50.796;4.994;2022-10-16T14:58:04;18.30;99.90
48666;DHT22;34452;50.796;4.994;2022-10-16T15:00:30;18.30;99.90
48666;DHT22;34452;50.796;4.994;2022-10-16T15:02:56;18.30;99.90
48666;DHT22;34452;50.796;4.994;2022-10-16T15:05:26;18.30;99.90
48666;DHT22;34452;50.796;4.994;2022-10-16T15:07:53;18.30;99.90
48666;DHT22;34452;50.796;4.994;2022-10-16T15:10:24;18.30;99.90
48666;DHT22;34452;50.796;4.994;2022-10-16T15:12:51;18.20;99.90
48666;DHT22;34452;50.796;4.994;2022-10-16T15:17:52;18.10;99.90
48666;DHT22;34452;50.796;4.994;2022-10-16T15:20:19;18.10;99.90
48666;DHT22;34452;50.796;4.994;2022-10-16T15:22:45;18.00;99.90
48666;DHT22;34452;50.796;4.994;2022-10-16T15:27:45;17.90;99.90
48666;DHT22;34452;50.796;4.994;2022-10-16T15:30:11;17.90;99.90
48666;DHT22;34452;50.796;4.994;2022-10-16T15:32:37;17.80;99.90
48666;DHT22;34452;50.796;4.994;2022-10-16T15:35:03;17.80;99.90
48666;DHT22;34452;50.796;4.994;2022-10-16T15:37:28;17.80;99.90
48666;DHT22;34452;50.796;4.994;2022-10-16T15:39:54;17.80;99.90
48666;DHT22;34452;50.796;4.994;2022-10-16T15:42:20;17.80;99.90
48666;DHT22;34452;50.796;4.994;2022-10-16T15:44:45;17.80;99.90
48666;DHT22;34452;50.796;4.994;2022-10-16T15:47:11;17.70;99.90
48666;DHT22;34452;50.796;4.994;2022-10-16T15:49:38;17.70;99.90
48666;DHT22;34452;50.796;4.994;2022-10-16T15:52:05;17.60;99.90
48666;DHT22;34452;50.796;4.994;2022-10-16T15:54:30;17.60;99.90
48666;DHT22;34452;50.796;4.994;2022-10-16T15:56:56;17.60;99.90
48666;DHT22;34452;50.796;4.994;2022-10-16T15:59:22;17.50;99.90
48666;DHT22;34452;50.796;4.994;2022-10-16T16:01:47;17.50;99.90
48666;DHT22;34452;50.796;4.994;2022-10-16T16:04:13;17.50;99.90
48666;DHT22;34452;50.796;4.994;2022-10-16T16:06:39;17.50;99.90
48666;DHT22;34452;50.796;4.994;2022-10-16T16:09:10;17.40;99.90
48666;DHT22;34452;50.796;4.994;2022-10-16T16:11:37;17.40;99.90
48666;DHT22;34452;50.796;4.994;2022-10-16T16:14:05;17.40;99.90
48666;DHT22;34452;50.796;4.994;2022-10-16T16:16:31;17.40;99.90
48666;DHT22;34452;50.796;4.994;2022-10-16T16:19:02;17.40;99.90
48666;DHT22;34452;50.796;4.994;2022-10-16T16:21:28;17.40;99.90
48666;DHT22;34452;50.796;4.994;2022-10-16T16:23:54;17.30;99.90
48666;DHT22;34452;50.796;4.994;2022-10-16T16:26:25;17.30;99.90
48666;DHT22;34452;50.796;4.994;2022-10-16T16:28:52;17.30;99.90
48666;DHT22;34452;50.796;4.994;2022-10-16T16:31:19;17.30;99.90
48666;DHT22;34452;50.796;4.994;2022-10-16T16:33:44;17.20;99.90
48666;DHT22;34452;50.796;4.994;2022-10-16T16:36:11;17.20;99.90
48666;DHT22;34452;50.796;4.994;2022-10-16T16:38:37;17.20;99.90
48666;DHT22;34452;50.796;4.994;2022-10-16T16:43:37;17.10;99.90
48666;DHT22;34452;50.796;4.994;2022-10-16T16:46:03;17.10;99.90
48666;DHT22;34452;50.796;4.994;2022-10-16T16:48:29;17.10;99.90
48666;DHT22;34452;50.796;4.994;2022-10-16T16:50:55;17.10;99.90
48666;DHT22;34452;50.796;4.994;2022-10-16T16:53:22;17.00;99.90
48666;DHT22;34452;50.796;4.994;2022-10-16T16:55:48;17.00;99.90
48666;DHT22;34452;50.796;4.994;2022-10-16T16:58:14;17.00;99.90
48666;DHT22;34452;50.796;4.994;2022-10-16T17:00:46;17.00;99.90
48666;DHT22;34452;50.796;4.994;2022-10-16T17:03:12;16.90;99.90
48666;DHT22;34452;50.796;4.994;2022-10-16T17:05:38;17.00;99.90
48666;DHT22;34452;50.796;4.994;2022-10-16T17:08:07;16.90;99.90
48666;DHT22;34452;50.796;4.994;2022-10-16T17:10:33;16.90;99.90
48666;DHT22;34452;50.796;4.994;2022-10-16T17:12:59;16.90;99.90
48666;DHT22;34452;50.796;4.994;2022-10-16T17:15:25;16.90;99.90
48666;DHT22;34452;50.796;4.994;2022-10-16T17:17:51;16.90;99.90
48666;DHT22;34452;50.796;4.994;2022-10-16T17:20:17;16.90;99.90
48666;DHT22;34452;50.796;4.994;2022-10-16T17:22:42;16.90;99.90
48666;DHT22;34452;50.796;4.994;2022-10-16T17:25:09;16.90;99.90
48666;DHT22;34452;50.796;4.994;2022-10-16T17:27:35;16.90;99.90
48666;DHT22;34452;50.796;4.994;2022-10-16T17:30:01;16.80;99.90
48666;DHT22;34452;50.796;4.994;2022-10-16T17:32:27;16.80;99.90
48666;DHT22;34452;50.796;4.994;2022-10-16T17:34:53;16.70;99.90
48666;DHT22;34452;50.796;4.994;2022-10-16T17:37:19;16.60;99.90
48666;DHT22;34452;50.796;4.994;2022-10-16T17:39:44;16.50;99.90
48666;DHT22;34452;50.796;4.994;2022-10-16T17:42:10;16.50;99.90
48666;DHT22;34452;50.796;4.994;2022-10-16T17:44:36;16.50;99.90
48666;DHT22;34452;50.796;4.994;2022-10-16T17:47:02;16.50;99.90
48666;DHT22;34452;50.796;4.994;2022-10-16T17:49:27;16.50;99.90
48666;DHT22;34452;50.796;4.994;2022-10-16T17:51:53;16.40;99.90
48666;DHT22;34452;50.796;4.994;2022-10-16T17:54:19;16.40;99.90
48666;DHT22;34452;50.796;4.994;2022-10-16T17:56:45;16.40;99.90